»·PEaware :: N333ZS KFAT-KSBA

N333ZS :: KFAT-KSBA

FLIGHT INFORMATION

Flight Status: Arrived
Operator: Privately registered:
United States
More flights under this callsign
Pilot: Judd H. (29974)
Aircraft: CESSNA 182 SKYLANE
(C182)
More flights by this aircraft type
Origin: KFAT Fresno Yosemite Intl
United States
Destination: KSBA Santa Barbara Mun
United States
More flights between these airports :: More routes between these airports
Route: EHF
File this flight plan on PilotEdge
Remarks:
Altitude:
(Current/Filed)
7,500ft
Speed:
(Current/Filed)
120kts
Departed: 30-Aug-20 10:58 AM
Arrived: 30-Aug-20 12:20 PM
Distance/Time
Traveled:
141nm/1:22
Distance/Time
To Go:
Arrived

Flight Plot

Page will automatically refresh every two minutes.

Flight plan parsing failed; only flown route is shown


Map Options




Map Legend


Flown Route
Filed Route
Departure Airport
Arrival Airport
Navaid (VOR, NDB)
Fix

Horizontal Profiles

Position Reports

Time Latitude Longitude Heading Altitude Ground
Speed
30-Aug-20 10:37 36.774770 -119.723317 305 339ft 0kts
30-Aug-20 10:37 36.774770 -119.723317 305 339ft 0kts
30-Aug-20 10:39 36.774770 -119.723317 305 339ft 0kts
30-Aug-20 10:40 36.774770 -119.723317 305 339ft 0kts
30-Aug-20 10:41 36.774770 -119.723317 305 339ft 0kts
30-Aug-20 10:41 36.774771 -119.723318 305 339ft 0kts
30-Aug-20 10:43 36.774771 -119.723320 305 339ft 0kts
30-Aug-20 10:44 36.774772 -119.723321 305 339ft 0kts
30-Aug-20 10:44 36.774773 -119.723321 305 339ft 0kts
30-Aug-20 10:45 36.774773 -119.723323 305 339ft 0kts
30-Aug-20 10:46 36.774774 -119.723324 305 339ft 0kts
30-Aug-20 10:47 36.774774 -119.723325 305 339ft 0kts
30-Aug-20 10:48 36.774775 -119.723326 305 339ft 0kts
30-Aug-20 10:49 36.774776 -119.723327 305 339ft 0kts
30-Aug-20 10:50 36.774776 -119.723328 305 339ft 0kts
30-Aug-20 10:51 36.774777 -119.723329 305 339ft 0kts
30-Aug-20 10:52 36.774777 -119.723330 305 339ft 0kts
30-Aug-20 10:53 36.774872 -119.723406 346 339ft 5kts
30-Aug-20 10:54 36.774489 -119.719867 125 339ft 29kts
30-Aug-20 10:55 36.770868 -119.713323 124 339ft 19kts
30-Aug-20 10:56 36.770191 -119.710875 33 339ft 0kts
30-Aug-20 10:57 36.772456 -119.713908 305 339ft 65kts
30-Aug-20 10:58 36.788898 -119.744490 299 1075ft 119kts
30-Aug-20 10:59 36.807488 -119.784523 295 1377ft 134kts
30-Aug-20 11:00 36.796485 -119.821594 227 1974ft 121kts
30-Aug-20 11:01 36.768487 -119.835740 140 2553ft 129kts
30-Aug-20 11:02 36.743125 -119.802976 136 3108ft 131kts
30-Aug-20 11:03 36.716701 -119.772939 143 3676ft 125kts
30-Aug-20 11:04 36.688561 -119.748672 144 4331ft 119kts
30-Aug-20 11:05 36.660781 -119.721123 142 4763ft 127kts
30-Aug-20 11:06 36.633305 -119.694464 142 5331ft 123kts
30-Aug-20 11:07 36.606310 -119.669523 152 5922ft 119kts
30-Aug-20 11:08 36.576094 -119.654420 157 6521ft 115kts
30-Aug-20 11:09 36.545681 -119.638794 156 6982ft 121kts
30-Aug-20 11:10 36.514685 -119.623525 156 7482ft 117kts
30-Aug-20 11:11 36.481114 -119.607362 156 7533ft 140kts
30-Aug-20 11:12 36.443723 -119.588959 155 7526ft 157kts
30-Aug-20 11:13 36.404783 -119.569883 156 7525ft 138kts
30-Aug-20 11:14 36.369954 -119.553127 157 7561ft 133kts
30-Aug-20 11:15 36.332578 -119.534340 152 7525ft 138kts
30-Aug-20 11:16 36.300150 -119.511894 146 7533ft 131kts
30-Aug-20 11:17 36.271198 -119.494784 153 7530ft 132kts
30-Aug-20 11:18 36.248483 -119.482154 154 7533ft 134kts
30-Aug-20 11:19 36.213604 -119.464570 156 7530ft 135kts
30-Aug-20 11:20 36.178093 -119.448567 158 7530ft 136kts
30-Aug-20 11:21 36.142424 -119.432986 158 7529ft 136kts
30-Aug-20 11:22 36.107943 -119.414115 153 7529ft 135kts
30-Aug-20 11:23 36.073108 -119.395720 155 7529ft 135kts
30-Aug-20 11:24 36.038309 -119.377942 155 7527ft 134kts
30-Aug-20 11:25 36.003599 -119.360215 155 7538ft 139kts
30-Aug-20 11:26 35.966806 -119.341444 155 7531ft 144kts
30-Aug-20 11:27 35.929526 -119.322466 155 7528ft 144kts
30-Aug-20 11:28 35.892236 -119.303492 155 7529ft 144kts
30-Aug-20 11:29 35.855148 -119.284639 155 7528ft 144kts
30-Aug-20 11:30 35.818124 -119.265837 155 7528ft 144kts
30-Aug-20 11:31 35.781025 -119.247015 156 7528ft 144kts
30-Aug-20 11:32 35.744034 -119.228268 156 7528ft 143kts
30-Aug-20 11:33 35.705771 -119.208938 155 7501ft 160kts
30-Aug-20 11:34 35.668700 -119.190197 156 7525ft 136kts
30-Aug-20 11:35 35.633998 -119.172636 156 7529ft 135kts
30-Aug-20 11:36 35.598460 -119.154676 156 7532ft 138kts
30-Aug-20 11:37 35.562845 -119.136716 157 7529ft 138kts
30-Aug-20 11:38 35.527294 -119.118801 158 7532ft 135kts
30-Aug-20 11:39 35.492901 -119.101494 158 7527ft 133kts
30-Aug-20 11:40 35.460027 -119.115083 209 7539ft 132kts
30-Aug-20 11:41 35.427749 -119.137269 209 7530ft 132kts
30-Aug-20 11:42 35.395677 -119.159591 209 7529ft 132kts
30-Aug-20 11:43 35.363510 -119.182060 209 7531ft 132kts
30-Aug-20 11:44 35.331558 -119.204363 209 7531ft 132kts
30-Aug-20 11:45 35.299428 -119.226769 209 7532ft 132kts
30-Aug-20 11:46 35.267167 -119.249146 208 7522ft 142kts
30-Aug-20 11:47 35.232435 -119.273252 209 7522ft 136kts
30-Aug-20 11:48 35.199964 -119.296001 209 7540ft 133kts
30-Aug-20 11:49 35.167710 -119.318414 209 7542ft 133kts
30-Aug-20 11:50 35.135491 -119.340770 209 7544ft 133kts
30-Aug-20 11:51 35.103192 -119.363162 209 7546ft 133kts
30-Aug-20 11:52 35.070992 -119.385467 209 7549ft 133kts
30-Aug-20 11:53 35.038560 -119.407906 209 7552ft 133kts
30-Aug-20 11:54 35.006335 -119.430182 209 7553ft 133kts
30-Aug-20 11:55 34.974066 -119.452471 209 7566ft 133kts
30-Aug-20 11:56 34.944031 -119.474149 210 7975ft 118kts
30-Aug-20 11:57 34.916825 -119.494688 210 8473ft 112kts
30-Aug-20 11:58 34.889095 -119.514839 208 8706ft 125kts
30-Aug-20 11:59 34.857629 -119.537067 208 8696ft 133kts
30-Aug-20 12:00 34.825386 -119.559787 208 8697ft 133kts
30-Aug-20 12:01 34.793135 -119.582500 208 8699ft 134kts
30-Aug-20 12:02 34.760788 -119.605266 208 8699ft 134kts
30-Aug-20 12:03 34.728308 -119.627895 207 8699ft 134kts
30-Aug-20 12:04 34.695658 -119.649917 207 8698ft 134kts
30-Aug-20 12:05 34.662955 -119.671960 207 8698ft 134kts
30-Aug-20 12:06 34.628813 -119.694921 207 8184ft 137kts
30-Aug-20 12:07 34.595565 -119.715761 205 7489ft 132kts
30-Aug-20 12:08 34.562626 -119.735997 205 6789ft 133kts
30-Aug-20 12:09 34.532584 -119.756737 227 6468ft 123kts
30-Aug-20 12:10 34.513893 -119.793752 250 5927ft 129kts
30-Aug-20 12:11 34.500234 -119.834788 248 5339ft 137kts
30-Aug-20 12:12 34.488331 -119.878747 258 4315ft 132kts
30-Aug-20 12:13 34.466059 -119.890589 132 3139ft 112kts
30-Aug-20 12:14 34.458902 -119.855608 93 2216ft 109kts
30-Aug-20 12:15 34.455808 -119.820337 98 1451ft 102kts
30-Aug-20 12:17 34.445213 -119.795976 173 1072ft 83kts
30-Aug-20 12:18 34.428413 -119.810853 262 599ft 90kts
30-Aug-20 12:19 34.427834 -119.838916 262 13ft 63kts
30-Aug-20 12:20 34.428430 -119.845769 68 13ft 7kts
30-Aug-20 12:21 34.429156 -119.844851 25 13ft 6kts
30-Aug-20 12:22 34.429279 -119.844948 251 13ft 0kts
30-Aug-20 12:23 34.429279 -119.844948 251 13ft 0kts
30-Aug-20 12:24 34.429279 -119.844948 251 13ft 0kts

Navigation Log

Ident Type
Flight plan parsing failed, navigation log unavailable